Time;durP1;ratioP1;P1;durP2;ratioP2;P2;SDS_P1;SDS_P2;PMS_P1;PMS_P2;Temp;Humidity;BMP_temperature;BMP_pressure;BME280_temperature;BME280_humidity;BME280_pressure;Samples;Min_cycle;Max_cycle;Signal;HPM_P1;HPM_P2
2022/11/06 09:39:33;;;;;;;36.40;16.57;;;;;;;-143.84;89.57;45138.56;5649716;22;20488;-69
2022/11/06 09:42:21;;;;;;;37.70;15.00;;;;;;;-143.84;89.29;45174.75;4990643;28;20464;-70
2022/11/06 09:45:02;;;;;;;43.83;15.83;;;;;;;-143.84;89.33;45167.13;4987064;28;20463;-71
2022/11/06 09:47:37;;;;;;;35.50;15.87;;;;;;;-143.84;88.90;45148.09;4990078;28;21106;-69
2022/11/06 09:50:12;;;;;;;36.00;13.33;;;;;;;-143.84;88.67;45157.59;4992934;28;20961;-69
2022/11/06 09:52:43;;;;;;;35.10;14.20;;;;;;;-143.84;88.83;45165.22;4990504;28;20439;-69
2022/11/06 09:55:17;;;;;;;35.23;14.50;;;;;;;-143.84;88.40;45155.69;4990233;28;20450;-69
2022/11/06 09:57:49;;;;;;;29.07;13.73;;;;;;;-143.84;88.45;45174.75;4990041;28;20460;-68
2022/11/06 10:00:17;;;;;;;32.00;13.57;;;;;;;-143.84;88.39;45163.31;4989313;28;20508;-69
2022/11/06 10:02:49;;;;;;;29.00;13.50;;;;;;;-143.84;88.50;45155.69;4990066;28;21228;-70
2022/11/06 10:05:25;;;;;;;29.80;17.40;;;;;;;-143.84;88.63;45159.50;4989862;28;20523;-71
2022/11/06 10:07:55;;;;;;;29.27;13.23;;;;;;;-143.84;88.41;45167.13;4989579;28;20448;-71
2022/11/06 10:10:29;;;;;;;34.30;13.30;;;;;;;-143.84;87.81;45151.91;4986478;28;20448;-71
2022/11/06 10:13:12;;;;;;;38.67;12.70;;;;;;;-143.84;87.69;45161.41;4988998;28;20453;-68
2022/11/06 10:15:47;;;;;;;27.77;14.20;;;;;;;-143.84;87.11;45144.28;4986330;28;20459;-68
2022/11/06 10:18:22;;;;;;;30.70;14.20;;;;;;;-143.84;86.87;45186.16;4991925;28;20440;-68
2022/11/06 10:20:53;;;;;;;26.60;12.20;;;;;;;-143.84;87.33;45130.94;4996982;28;20474;-67
2022/11/06 10:23:30;;;;;;;46.40;14.27;;;;;;;-143.84;87.56;45176.66;4993974;28;20518;-68
2022/11/06 10:26:09;;;;;;;33.70;13.70;;;;;;;-143.84;88.05;45150.00;4987585;28;20460;-69
2022/11/06 10:29:04;;;;;;;27.43;12.10;;;;;;;-143.84;87.63;45155.69;4988708;28;20452;-68
2022/11/06 10:31:39;;;;;;;32.70;14.90;;;;;;;-143.84;87.40;45125.22;4994560;28;20456;-68
2022/11/06 10:34:10;;;;;;;33.50;13.70;;;;;;;-143.84;87.58;45150.00;4995647;28;20437;-68
2022/11/06 10:36:43;;;;;;;31.67;12.80;;;;;;;-143.84;86.90;45150.00;4988585;28;20441;-68
2022/11/06 10:39:15;;;;;;;28.73;13.87;;;;;;;-143.84;86.86;45184.25;4988832;28;20495;-68
2022/11/06 10:41:48;;;;;;;40.50;14.20;;;;;;;-143.84;87.12;45150.00;4989579;28;20483;-68
2022/11/06 10:44:22;;;;;;;29.90;13.57;;;;;;;-143.84;87.26;45142.38;4988455;28;20448;-68
2022/11/06 10:46:54;;;;;;;37.40;18.90;;;;;;;-143.84;87.33;45167.13;4988314;28;20448;-68
2022/11/06 10:49:32;;;;;;;61.73;25.70;;;;;;;-143.84;87.33;45174.75;4989157;28;20502;-69
2022/11/06 10:52:12;;;;;;;35.57;13.83;;;;;;;-143.84;87.38;45155.69;4989568;28;20519;-68
2022/11/06 10:54:55;;;;;;;37.57;15.53;;;;;;;-143.84;87.26;45155.69;4989783;28;20538;-68
2022/11/06 10:57:32;;;;;;;33.03;12.97;;;;;;;-143.84;87.13;45148.09;4992623;28;20451;-68
2022/11/06 11:00:00;;;;;;;36.53;13.50;;;;;;;-143.84;87.19;45188.06;5008062;28;20487;-68
2022/11/06 11:02:30;;;;;;;38.10;13.40;;;;;;;-143.84;87.69;45151.91;5008556;28;20467;-69
2022/11/06 11:04:59;;;;;;;28.10;13.10;;;;;;;-143.84;87.75;45155.69;4984592;28;20461;-68
2022/11/06 11:07:29;;;;;;;30.00;14.63;;;;;;;-143.84;88.01;45163.31;4969774;28;21022;-68
2022/11/06 11:09:56;;;;;;;34.10;16.00;;;;;;;-143.84;88.69;45146.19;4979595;28;21041;-68
2022/11/06 11:12:28;;;;;;;33.00;14.57;;;;;;;-143.84;88.16;45170.94;4988876;28;20453;-68
2022/11/06 11:15:11;;;;;;;32.43;13.40;;;;;;;-143.84;88.17;45180.47;4989242;28;20452;-68
2022/11/06 11:17:40;;;;;;;36.57;15.57;;;;;;;-143.84;88.01;45150.00;4989439;28;20448;-68
2022/11/06 11:20:29;;;;;;;28.47;12.70;;;;;;;-143.84;88.51;45159.50;4989148;28;20484;-68
2022/11/06 11:23:22;;;;;;;37.93;13.93;;;;;;;-143.84;88.76;45159.50;4989100;28;20436;-68
2022/11/06 11:25:51;;;;;;;33.50;12.27;;;;;;;-143.84;88.47;45163.31;4974912;28;20455;-68
2022/11/06 11:28:27;;;;;;;28.80;15.00;;;;;;;-143.84;88.53;45150.00;4989362;28;20966;-72
2022/11/06 11:30:59;;;;;;;33.83;15.37;;;;;;;-143.84;88.64;45172.84;4989207;28;20973;-71
2022/11/06 11:33:26;;;;;;;33.93;14.17;;;;;;;-143.84;88.45;45176.66;4989135;28;20498;-71
2022/11/06 11:35:54;;;;;;;32.90;12.80;;;;;;;-143.84;88.37;45186.16;4989456;28;20429;-71
2022/11/06 11:38:22;;;;;;;34.63;13.23;;;;;;;-143.84;88.51;45180.47;4989703;28;20436;-71
2022/11/06 11:40:50;;;;;;;22.00;12.90;;;;;;;-143.84;88.50;45167.13;4989737;28;20560;-71
2022/11/06 11:43:27;;;;;;;29.63;13.33;;;;;;;-143.84;88.02;45169.03;4990272;28;21145;-71
2022/11/06 11:46:18;;;;;;;32.70;12.17;;;;;;;-143.84;88.19;45170.94;4989516;28;20455;-71
2022/11/06 11:48:46;;;;;;;24.87;12.20;;;;;;;-143.84;88.51;45159.50;4989770;28;20440;-71
2022/11/06 11:51:25;;;;;;;24.63;13.07;;;;;;;-143.84;88.76;45176.66;4990212;28;20528;-71
2022/11/06 11:53:55;;;;;;;26.83;12.67;;;;;;;-143.84;89.03;45189.97;4989948;28;20519;-71
2022/11/06 11:56:22;;;;;;;31.73;14.07;;;;;;;-143.84;89.03;45167.13;4989803;28;20441;-71
2022/11/06 11:58:53;;;;;;;40.73;14.80;;;;;;;-143.84;88.90;45155.69;4992045;28;20436;-71
2022/11/06 12:01:38;;;;;;;39.97;12.00;;;;;;;-143.84;89.02;45189.97;4993326;28;20865;-71
2022/11/06 12:04:17;;;;;;;31.77;12.67;;;;;;;-143.84;89.72;45163.31;4993052;28;20502;-71
2022/11/06 12:07:00;;;;;;;28.07;12.93;;;;;;;-143.84;89.69;45157.59;4993136;28;20472;-71
2022/11/06 12:09:29;;;;;;;34.37;13.80;;;;;;;-143.84;89.67;45165.22;4993027;28;20447;-71
2022/11/06 12:12:00;;;;;;;31.27;12.80;;;;;;;-143.84;89.23;45151.91;4992897;28;20441;-71
2022/11/06 12:14:37;;;;;;;21.43;12.13;;;;;;;-143.84;88.96;45163.31;4993038;28;20448;-71
2022/11/06 12:17:11;;;;;;;32.13;12.60;;;;;;;-143.84;88.98;45184.25;4992867;28;20452;-71
2022/11/06 12:19:42;;;;;;;31.53;13.33;;;;;;;-143.84;89.30;45159.50;4993055;28;20436;-71
2022/11/06 12:22:17;;;;;;;17.47;12.13;;;;;;;-143.84;89.16;45163.31;4992929;28;20484;-71
2022/11/06 12:24:53;;;;;;;34.40;13.17;;;;;;;-143.84;89.23;45189.97;4992887;28;20451;-71
2022/11/06 12:27:25;;;;;;;42.70;12.53;;;;;;;-143.84;89.04;45155.69;4992650;28;20451;-71
2022/11/06 12:30:01;;;;;;;32.80;13.03;;;;;;;-143.84;89.07;45165.22;4993158;28;21075;-71
2022/11/06 12:32:44;;;;;;;32.40;13.90;;;;;;;-143.84;89.17;45159.50;4992775;28;20456;-71
2022/11/06 12:35:20;;;;;;;58.57;14.67;;;;;;;-143.84;89.47;45184.25;4992453;28;21107;-71
2022/11/06 12:37:56;;;;;;;27.43;13.10;;;;;;;-143.84;89.92;45176.66;4992610;28;20446;-71
2022/11/06 12:40:28;;;;;;;29.30;16.70;;;;;;;-143.84;90.22;45170.94;4992041;28;20495;-71
2022/11/06 12:43:04;;;;;;;28.63;12.30;;;;;;;-143.84;90.29;45170.94;4991995;28;20463;-71
2022/11/06 12:46:02;;;;;;;23.53;12.20;;;;;;;-143.84;90.11;45207.13;4991578;28;20448;-71
2022/11/06 12:48:43;;;;;;;35.17;13.03;;;;;;;-143.84;90.04;45205.22;4981679;28;20535;-71
2022/11/06 12:51:22;;;;;;;33.70;14.77;;;;;;;-143.84;89.79;45188.06;4992224;28;20459;-71
2022/11/06 12:54:02;;;;;;;35.87;12.97;;;;;;;-143.84;89.87;45165.22;4992051;28;20433;-71
2022/11/06 12:56:40;;;;;;;33.20;12.70;;;;;;;-143.84;89.40;45184.25;4991766;28;20444;-71
2022/11/06 12:59:23;;;;;;;27.80;13.83;;;;;;;-143.84;89.54;45193.78;4991721;28;20535;-71
2022/11/06 13:02:04;;;;;;;34.37;19.67;;;;;;;-143.84;89.36;45150.00;4992180;28;20507;-71
2022/11/06 13:04:47;;;;;;;45.77;17.30;;;;;;;-143.84;89.00;45178.56;4992106;28;20518;-71
2022/11/06 13:07:30;;;;;;;23.53;12.43;;;;;;;-143.84;89.10;45157.59;4992046;28;20455;-71
2022/11/06 13:10:13;;;;;;;31.53;11.90;;;;;;;-143.84;89.50;45169.03;4991533;28;20906;-71
2022/11/06 13:12:50;;;;;;;30.23;12.00;;;;;;;-143.84;89.90;45167.13;4991808;28;20958;-71
2022/11/06 13:15:27;;;;;;;22.67;13.03;;;;;;;-143.84;90.01;45188.06;4991756;28;20802;-71
2022/11/06 13:18:04;;;;;;;27.40;12.50;;;;;;;-143.84;90.41;45155.69;4992177;28;20447;-71
2022/11/06 13:20:39;;;;;;;22.30;10.90;;;;;;;-143.84;90.52;45191.88;4991667;28;20879;-71
2022/11/06 13:23:14;;;;;;;29.07;12.33;;;;;;;-143.84;90.35;45189.97;4991877;28;20527;-71
2022/11/06 13:25:49;;;;;;;35.53;12.80;;;;;;;-143.84;89.95;45176.66;4991620;28;20447;-71
2022/11/06 13:28:28;;;;;;;19.50;11.23;;;;;;;-143.84;90.49;45178.56;4991637;28;20969;-71
2022/11/06 13:30:57;;;;;;;47.40;12.77;;;;;;;-143.84;90.32;45165.22;4991734;28;20447;-71
2022/11/06 13:33:30;;;;;;;23.13;12.30;;;;;;;-143.84;90.56;45170.94;4991344;28;20530;-71
2022/11/06 13:35:59;;;;;;;25.57;11.43;;;;;;;-143.84;90.49;45167.13;4991170;28;20455;-68
2022/11/06 13:38:29;;;;;;;25.53;11.67;;;;;;;-143.84;89.89;45237.59;4990521;28;20444;-68
2022/11/06 13:41:02;;;;;;;29.63;12.23;;;;;;;-143.84;89.40;45170.94;4970862;28;20484;-68
2022/11/06 13:43:35;;;;;;;22.87;11.53;;;;;;;-143.84;89.21;45159.50;4971126;28;20452;-68
2022/11/06 13:46:11;;;;;;;18.67;9.73;;;;;;;-143.84;88.90;45172.84;4971235;28;20887;-68
2022/11/06 13:48:49;;;;;;;27.93;12.17;;;;;;;-143.84;88.84;45178.56;4971151;28;20488;-72
2022/11/06 13:51:26;;;;;;;16.10;10.60;;;;;;;-143.84;89.16;45140.47;4971644;28;20519;-71
2022/11/06 13:54:01;;;;;;;23.97;12.00;;;;;;;-143.84;89.20;45180.47;4972239;28;20523;-72
2022/11/06 13:56:51;;;;;;;26.33;11.33;;;;;;;-143.84;88.85;45186.16;4971928;28;20448;-71
2022/11/06 13:59:35;;;;;;;22.97;11.53;;;;;;;-143.84;89.04;45184.25;4971407;28;20460;-71
2022/11/06 14:02:25;;;;;;;18.90;10.67;;;;;;;-143.84;89.86;45174.75;4971970;28;20495;-71
2022/11/06 14:05:27;;;;;;;34.00;12.37;;;;;;;-143.84;90.26;45161.41;4971517;28;20460;-71
2022/11/06 14:07:56;;;;;;;32.93;12.03;;;;;;;-143.84;90.40;45191.88;4971384;28;20826;-71
2022/11/06 14:10:29;;;;;;;39.13;11.50;;;;;;;-143.84;90.41;45140.47;4971004;28;20440;-71
2022/11/06 14:12:56;;;;;;;25.23;12.43;;;;;;;-143.84;90.61;45195.69;4971297;28;20448;-72
2022/11/06 14:15:38;;;;;;;32.30;13.43;;;;;;;-143.84;90.81;45178.56;4970812;28;20445;-71
2022/11/06 14:18:06;;;;;;;29.73;12.93;;;;;;;-143.84;90.68;45170.94;4970285;28;20453;-71
2022/11/06 14:20:36;;;;;;;23.73;13.07;;;;;;;-143.84;90.03;45170.94;4970290;28;20862;-68
2022/11/06 14:23:46;;;;;;;23.73;11.40;;;;;;;-143.84;89.71;45165.22;4970185;28;20455;-69
2022/11/06 14:26:34;;;;;;;20.60;11.07;;;;;;;-143.84;89.77;45193.78;4929101;29;20600;-69
2022/11/06 14:29:54;;;;;;;40.37;11.07;;;;;;;-143.84;89.93;45151.91;4969578;28;20811;-69
2022/11/06 14:32:43;;;;;;;21.23;11.70;;;;;;;-143.84;90.38;45186.16;4970454;28;20449;-69
2022/11/06 14:35:47;;;;;;;23.97;10.90;;;;;;;-143.84;90.41;45199.50;4970697;28;20441;-69
2022/11/06 14:38:32;;;;;;;28.47;12.20;;;;;;;-143.84;90.42;45207.13;4969990;28;20515;-70
2022/11/06 14:41:00;;;;;;;19.90;10.83;;;;;;;-143.84;90.52;45174.75;4969817;28;20504;-69
2022/11/06 14:43:31;;;;;;;39.53;10.57;;;;;;;-143.84;90.33;45153.81;4970261;28;20449;-69
2022/11/06 14:46:02;;;;;;;20.23;11.07;;;;;;;-143.84;90.38;45186.16;4969819;28;20809;-69
2022/11/06 14:48:33;;;;;;;27.33;11.47;;;;;;;-143.84;90.07;45191.88;4969639;28;20907;-69
2022/11/06 14:51:03;;;;;;;19.10;9.60;;;;;;;-143.84;89.69;45176.66;4969846;28;20445;-69
2022/11/06 14:53:37;;;;;;;33.67;12.37;;;;;;;-143.84;89.90;45186.16;4969764;28;20447;-69
2022/11/06 14:56:08;;;;;;;22.47;11.33;;;;;;;-143.84;90.27;45146.19;4969692;28;20460;-69
2022/11/06 14:58:38;;;;;;;27.37;11.53;;;;;;;-143.84;90.47;45184.25;4970489;28;20848;-68
2022/11/06 15:01:15;;;;;;;25.33;10.40;;;;;;;-143.84;90.77;45170.94;4968969;28;20492;-68
2022/11/06 15:03:50;;;;;;;27.10;11.27;;;;;;;-143.84;90.63;45169.03;4969292;28;20449;-68
2022/11/06 15:06:37;;;;;;;29.60;10.50;;;;;;;-143.84;90.70;45161.41;4969417;28;20734;-68
2022/11/06 15:09:10;;;;;;;38.13;11.20;;;;;;;-143.84;90.86;45189.97;4967534;28;20555;-68
2022/11/06 15:11:56;;;;;;;21.40;10.30;;;;;;;-143.84;90.64;45210.94;4951001;28;20460;-68
2022/11/06 15:14:56;;;;;;;28.53;11.37;;;;;;;-143.84;90.75;45203.31;4950055;28;20446;-68
2022/11/06 15:17:39;;;;;;;26.87;11.10;;;;;;;-143.84;90.83;45153.81;4950680;28;20445;-68
2022/11/06 15:20:24;;;;;;;27.03;9.57;;;;;;;-143.84;91.14;45174.75;4949518;28;20539;-68
2022/11/06 15:23:03;;;;;;;27.77;11.00;;;;;;;-143.84;91.25;45169.03;4950382;28;20521;-68
2022/11/06 15:25:34;;;;;;;28.07;9.93;;;;;;;-143.84;91.44;45155.69;4950587;28;20456;-68
2022/11/06 15:28:06;;;;;;;36.57;11.13;;;;;;;-143.84;91.40;45237.59;4950686;28;21126;-68
2022/11/06 15:30:44;;;;;;;25.90;9.20;;;;;;;-143.84;90.75;45163.31;4950386;28;20949;-68
2022/11/06 15:33:15;;;;;;;23.27;10.07;;;;;;;-143.84;90.35;45199.50;4953195;28;20848;-68
2022/11/06 15:35:46;;;;;;;32.40;11.17;;;;;;;-143.84;90.50;45178.56;4954187;28;21006;-68
2022/11/06 15:38:17;;;;;;;26.13;10.00;;;;;;;-143.84;90.50;45167.13;4953961;28;20888;-68
2022/11/06 15:40:49;;;;;;;23.10;9.50;;;;;;;-143.84;90.74;45201.41;4970991;28;20862;-68
2022/11/06 15:43:25;;;;;;;25.77;10.00;;;;;;;-143.84;90.77;45203.31;4972980;28;20474;-68
2022/11/06 15:46:06;;;;;;;21.50;10.17;;;;;;;-143.84;90.95;45157.59;5011878;28;20471;-68
2022/11/06 15:48:34;;;;;;;25.80;9.60;;;;;;;-143.84;91.01;45203.31;5012211;28;20932;-68
2022/11/06 15:51:02;;;;;;;23.63;9.50;;;;;;;-143.84;90.95;45170.94;5011794;28;20450;-66
2022/11/06 15:53:30;;;;;;;22.50;9.40;;;;;;;-143.84;90.90;45233.78;5012027;28;20442;-67
2022/11/06 15:56:02;;;;;;;17.80;8.60;;;;;;;-143.84;90.93;45193.78;5012047;28;20482;-68
2022/11/06 15:58:31;;;;;;;25.13;8.60;;;;;;;-143.84;90.84;45195.69;5011958;28;20447;-68
2022/11/06 16:01:00;;;;;;;14.87;7.90;;;;;;;-143.84;90.59;45170.94;5012171;28;21040;-67
2022/11/06 16:03:30;;;;;;;18.50;7.83;;;;;;;-143.84;90.54;45191.88;5011956;28;20447;-67
2022/11/06 16:05:59;;;;;;;18.57;7.20;;;;;;;-143.84;90.28;45172.84;5011693;28;20450;-67
2022/11/06 16:08:29;;;;;;;26.40;8.03;;;;;;;-143.84;89.90;45189.97;5002443;28;20452;-67
2022/11/06 16:11:00;;;;;;;20.97;8.90;;;;;;;-143.84;89.42;45191.88;4991226;28;20447;-67
2022/11/06 16:13:28;;;;;;;30.33;8.60;;;;;;;-143.84;89.58;45155.69;4991490;28;20455;-67
2022/11/06 16:15:59;;;;;;;24.33;9.30;;;;;;;-143.84;89.60;45189.97;4991435;28;20980;-67
2022/11/06 16:18:28;;;;;;;16.20;7.97;;;;;;;-143.84;90.18;45207.13;4992500;28;20502;-67
2022/11/06 16:20:59;;;;;;;28.43;8.53;;;;;;;-143.84;90.24;45178.56;4991027;28;20448;-67
2022/11/06 16:23:33;;;;;;;32.93;8.53;;;;;;;-143.84;90.21;45191.88;4991318;28;20516;-67
2022/11/06 16:26:05;;;;;;;15.43;7.43;;;;;;;-143.84;90.24;45180.47;4990890;28;20473;-67
2022/11/06 16:28:34;;;;;;;21.83;7.30;;;;;;;-143.84;90.27;45174.75;4995553;28;20462;-68
2022/11/06 16:31:09;;;;;;;28.93;8.47;;;;;;;-143.84;90.35;45186.16;4995176;28;20466;-68
2022/11/06 16:33:39;;;;;;;26.90;7.13;;;;;;;-143.84;90.61;45231.88;4993218;28;20969;-67
2022/11/06 16:36:12;;;;;;;19.37;6.57;;;;;;;-143.84;90.63;45176.66;4995232;28;20456;-68
2022/11/06 16:38:44;;;;;;;26.17;7.73;;;;;;;-143.84;90.38;45178.56;4993159;28;20475;-68
2022/11/06 16:44:23;;;;;;;28.00;8.33;;;;;;;-143.84;89.70;45174.75;4992983;28;20466;-68
2022/11/06 16:47:18;;;;;;;15.60;6.30;;;;;;;-143.84;89.29;45163.31;4991810;28;20462;-68
2022/11/06 16:49:48;;;;;;;21.13;6.63;;;;;;;-143.84;89.84;45188.06;4993005;28;21337;-67
2022/11/06 16:52:22;;;;;;;21.53;7.67;;;;;;;-143.84;89.63;45155.69;4990597;28;20517;-67
2022/11/06 16:54:50;;;;;;;31.97;9.27;;;;;;;-143.84;89.57;45189.97;4991765;28;20528;-67
2022/11/06 16:57:22;;;;;;;14.63;7.23;;;;;;;-143.84;89.68;45191.88;4991641;28;20483;-67
2022/11/06 17:00:02;;;;;;;25.70;7.47;;;;;;;-143.84;89.74;45163.31;4992062;28;20456;-66
2022/11/06 17:02:32;;;;;;;21.53;7.90;;;;;;;-143.84;90.06;45193.78;4988332;28;20494;-67
2022/11/06 17:05:15;;;;;;;15.30;7.77;;;;;;;-143.84;89.78;45201.41;4989979;28;20465;-67
2022/11/06 17:07:43;;;;;;;26.63;6.87;;;;;;;-143.84;89.21;45193.78;4988838;28;20462;-67
2022/11/06 17:10:38;;;;;;;21.83;7.63;;;;;;;-143.84;88.82;45174.75;4989765;28;20456;-67
2022/11/06 17:13:19;;;;;;;24.70;6.87;;;;;;;-143.84;88.92;45159.50;4977720;28;20464;-67
2022/11/06 17:15:48;;;;;;;27.07;7.87;;;;;;;-143.84;89.44;45188.06;4988255;28;20553;-67
2022/11/06 17:18:21;;;;;;;22.47;7.50;;;;;;;-143.84;89.16;45193.78;4992001;28;20461;-67
2022/11/06 17:20:52;;;;;;;18.83;6.80;;;;;;;-143.84;89.27;45193.78;4989462;28;20528;-67
2022/11/06 17:23:20;;;;;;;23.97;8.30;;;;;;;-143.84;89.19;45170.94;4990072;28;20479;-67
2022/11/06 17:25:49;;;;;;;19.00;7.03;;;;;;;-143.84;89.18;45172.84;4989207;28;20458;-67
2022/11/06 17:28:19;;;;;;;20.47;7.90;;;;;;;-143.84;89.63;45189.97;4993166;28;20952;-67
2022/11/06 17:30:47;;;;;;;25.63;7.90;;;;;;;-143.84;89.93;45178.56;4989650;28;20485;-67
2022/11/06 17:33:15;;;;;;;19.93;7.23;;;;;;;-143.84;90.09;45205.22;4989981;28;20452;-67
2022/11/06 17:35:43;;;;;;;20.30;7.40;;;;;;;-143.84;89.62;45186.16;4986627;28;20467;-67
2022/11/06 17:38:14;;;;;;;13.93;7.53;;;;;;;-143.84;89.66;45188.06;4992731;28;20553;-67
2022/11/06 17:40:42;;;;;;;24.20;8.83;;;;;;;-143.84;89.47;45184.25;4989445;28;20493;-68
2022/11/06 17:43:10;;;;;;;15.90;7.40;;;;;;;-143.84;89.12;45184.25;4993846;28;20487;-67
2022/11/06 17:45:40;;;;;;;23.80;7.80;;;;;;;-143.84;88.95;45189.97;4989715;28;20463;-67
2022/11/06 17:48:08;;;;;;;19.53;8.23;;;;;;;-143.84;89.24;45212.84;4992352;28;20459;-67
2022/11/06 17:51:48;;;;;;;25.17;8.17;;;;;;;-143.84;89.53;45165.22;4990311;28;20555;-67
2022/11/06 17:53:23;;;;;;;36.33;7.30;;;;;;;-143.84;89.30;45184.25;4989073;28;20447;-67
2022/11/06 17:55:51;;;;;;;16.47;6.77;;;;;;;-143.84;89.47;45184.25;4989512;28;20853;-67
2022/11/06 17:58:19;;;;;;;23.37;8.60;;;;;;;-143.84;89.80;45188.06;4992783;28;20545;-67
2022/11/06 18:00:48;;;;;;;21.60;7.10;;;;;;;-143.84;89.97;45178.56;4988992;28;20453;-67
2022/11/06 18:03:19;;;;;;;20.00;7.00;;;;;;;-143.84;89.99;45191.88;4989403;28;20499;-68
2022/11/06 18:05:47;;;;;;;16.50;6.93;;;;;;;-143.84;89.63;45174.75;4991318;28;20451;-67
2022/11/06 18:08:15;;;;;;;20.40;7.80;;;;;;;-143.84;89.24;45167.13;4988682;28;20439;-67
2022/11/06 18:11:02;;;;;;;22.50;7.53;;;;;;;-143.84;88.53;45178.56;4989056;28;20513;-68
2022/11/06 18:13:31;;;;;;;16.97;7.53;;;;;;;-143.84;88.67;45199.50;4987669;28;20469;-68
2022/11/06 18:16:01;;;;;;;16.93;7.33;;;;;;;-143.84;89.06;45176.66;4990477;28;20460;-67
2022/11/06 18:18:29;;;;;;;32.40;8.67;;;;;;;-143.84;89.35;45178.56;4993282;28;20473;-68
2022/11/06 18:20:57;;;;;;;18.27;7.80;;;;;;;-143.84;88.76;45172.84;4986768;28;20467;-68
2022/11/06 18:23:24;;;;;;;23.80;8.37;;;;;;;-143.84;88.87;45201.41;4987645;28;20522;-68
2022/11/06 18:25:55;;;;;;;14.10;7.20;;;;;;;-143.84;89.11;45182.38;4988291;28;20973;-67
2022/11/06 18:28:23;;;;;;;10.93;6.23;;;;;;;-143.84;89.09;45199.50;4988709;28;20529;-67
2022/11/06 18:30:51;;;;;;;17.43;8.40;;;;;;;-143.84;88.90;45188.06;4988999;28;20450;-67
2022/11/06 18:33:20;;;;;;;23.17;7.50;;;;;;;-143.84;88.42;45201.41;4988799;28;20466;-67
2022/11/06 18:35:51;;;;;;;16.50;7.13;;;;;;;-143.84;87.59;45163.31;4988692;28;20546;-67
2022/11/06 18:38:18;;;;;;;19.00;8.90;;;;;;;-143.84;86.91;45167.13;4988124;28;20544;-68
2022/11/06 18:40:57;;;;;;;16.80;7.10;;;;;;;-143.84;87.12;45195.69;4988440;28;20503;-67
2022/11/06 18:43:25;;;;;;;14.90;5.97;;;;;;;-143.84;87.73;45205.22;4995735;28;20478;-67
2022/11/06 18:45:53;;;;;;;19.50;7.73;;;;;;;-143.84;88.22;45197.59;4988331;28;20465;-68
2022/11/06 18:48:22;;;;;;;20.00;7.60;;;;;;;-143.84;88.76;45197.59;4989202;28;20454;-68
2022/11/06 18:50:51;;;;;;;17.40;7.30;;;;;;;-143.84;88.73;45199.50;4988607;28;20463;-68
2022/11/06 18:53:19;;;;;;;20.70;7.40;;;;;;;-143.84;88.43;45193.78;4988019;28;20452;-69
2022/11/06 18:55:46;;;;;;;19.47;8.60;;;;;;;-143.84;87.70;45186.16;4988902;28;20451;-70
2022/11/06 18:58:14;;;;;;;17.40;8.00;;;;;;;-143.84;87.08;45193.78;4989415;28;20452;-71
2022/11/06 19:00:42;;;;;;;13.30;7.27;;;;;;;-143.84;86.91;45178.56;4989596;28;20456;-71
2022/11/06 19:03:10;;;;;;;22.17;7.30;;;;;;;-143.84;86.82;45201.41;4989272;28;20599;-71
2022/11/06 19:05:46;;;;;;;16.43;6.20;;;;;;;-143.84;87.59;45186.16;4989806;28;20455;-70
2022/11/06 19:08:13;;;;;;;12.50;5.90;;;;;;;-143.84;87.65;45167.13;4991845;28;20835;-71
2022/11/06 19:10:41;;;;;;;17.97;7.00;;;;;;;-143.84;88.07;45174.75;4993826;28;20450;-70
2022/11/06 19:13:08;;;;;;;17.20;6.33;;;;;;;-143.84;88.22;45209.03;4995302;28;20501;-71
2022/11/06 19:15:36;;;;;;;29.53;7.20;;;;;;;-143.84;88.67;45178.56;4994340;28;20474;-71
2022/11/06 19:18:04;;;;;;;28.60;7.27;;;;;;;-143.84;88.83;45214.72;4992933;28;20862;-71
2022/11/06 19:20:33;;;;;;;19.47;7.23;;;;;;;-143.84;88.68;45203.31;4997313;28;20454;-71
2022/11/06 19:23:02;;;;;;;24.30;7.90;;;;;;;-143.84;88.25;45188.06;4993078;28;20481;-71
2022/11/06 19:25:29;;;;;;;22.07;7.47;;;;;;;-143.84;88.39;45186.16;4993173;28;20993;-71
2022/11/06 19:27:57;;;;;;;17.73;7.83;;;;;;;-143.84;88.45;45209.03;4994849;28;20447;-71
2022/11/06 19:30:24;;;;;;;11.53;5.50;;;;;;;-143.84;88.82;45191.88;4995770;28;20450;-71
2022/11/06 19:32:51;;;;;;;19.33;7.23;;;;;;;-143.84;89.02;45209.03;4992139;28;20460;-72
2022/11/06 19:35:19;;;;;;;13.57;5.93;;;;;;;-143.84;88.68;45184.25;4993767;28;20987;-71
2022/11/06 19:37:47;;;;;;;22.70;6.37;;;;;;;-143.84;87.71;45169.03;4990944;28;20499;-70
2022/11/06 19:40:15;;;;;;;18.80;6.27;;;;;;;-143.84;87.51;45176.66;4990867;28;20489;-69
2022/11/06 19:42:43;;;;;;;26.33;6.87;;;;;;;-143.84;88.22;45174.75;4988716;28;20547;-71
2022/11/06 19:45:11;;;;;;;14.07;6.03;;;;;;;-143.84;88.33;45193.78;4991621;28;20523;-72
2022/11/06 19:47:39;;;;;;;17.53;6.20;;;;;;;-143.84;88.21;45182.38;4991928;28;20842;-72
2022/11/06 19:50:06;;;;;;;18.13;7.80;;;;;;;-143.84;88.25;45201.41;4992663;28;20490;-71
2022/11/06 19:52:34;;;;;;;23.50;7.50;;;;;;;-143.84;87.86;45191.88;4991244;28;20449;-71
2022/11/06 19:55:02;;;;;;;16.70;6.10;;;;;;;-143.84;87.88;45205.22;4994879;28;20455;-71
2022/11/06 19:57:31;;;;;;;17.90;7.20;;;;;;;-143.84;87.81;45191.88;4994415;28;20517;-72
2022/11/06 19:59:59;;;;;;;19.37;7.07;;;;;;;-143.84;87.32;45197.59;4992568;28;20484;-72
2022/11/06 20:02:26;;;;;;;17.30;6.87;;;;;;;-143.84;86.85;45205.22;4991303;28;20482;-71
2022/11/06 20:04:54;;;;;;;13.70;5.90;;;;;;;-143.84;86.24;45191.88;4994824;28;20449;-71
2022/11/06 20:07:21;;;;;;;17.30;6.80;;;;;;;-143.84;86.88;45207.13;4988517;28;20822;-72
2022/11/06 20:09:48;;;;;;;15.87;7.30;;;;;;;-143.84;87.57;45195.69;4991058;28;20990;-71
2022/11/06 20:12:16;;;;;;;18.77;6.70;;;;;;;-143.84;88.29;45193.78;4989283;28;20640;-71
2022/11/06 20:14:47;;;;;;;13.30;6.10;;;;;;;-143.84;88.57;45203.31;4991218;28;20472;-71
2022/11/06 20:17:16;;;;;;;34.77;8.20;;;;;;;-143.84;88.42;45191.88;4991097;28;20533;-71
2022/11/06 20:19:44;;;;;;;25.63;7.30;;;;;;;-143.84;88.05;45210.94;4990158;28;20455;-72
2022/11/06 20:22:12;;;;;;;14.10;6.57;;;;;;;-143.84;87.73;45191.88;4990238;28;20493;-72
2022/11/06 20:24:40;;;;;;;28.00;6.87;;;;;;;-143.84;88.16;45176.66;4990397;28;20455;-71
2022/11/06 20:27:07;;;;;;;10.03;6.73;;;;;;;-143.84;88.13;45214.72;4991075;28;20971;-71
2022/11/06 20:29:34;;;;;;;20.13;6.07;;;;;;;-143.84;88.15;45197.59;4991698;28;20454;-71
2022/11/06 20:32:03;;;;;;;18.60;6.97;;;;;;;-143.84;88.01;45210.94;4989410;28;20457;-72
2022/11/06 20:34:30;;;;;;;20.33;7.60;;;;;;;-143.84;87.95;45203.31;4990390;28;20448;-71
2022/11/06 20:36:58;;;;;;;13.07;6.70;;;;;;;-143.84;87.87;45189.97;4990919;28;20465;-71
2022/11/06 20:39:25;;;;;;;28.70;6.30;;;;;;;-143.84;87.81;45205.22;4992082;28;20492;-71
2022/11/06 20:41:52;;;;;;;18.57;7.23;;;;;;;-143.84;88.02;45191.88;4990784;28;20464;-72
2022/11/06 20:44:20;;;;;;;18.17;7.17;;;;;;;-143.84;88.29;45218.53;4990930;28;20586;-72
2022/11/06 20:46:47;;;;;;;18.80;6.30;;;;;;;-143.84;88.52;45214.72;4990813;28;20521;-72
2022/11/06 20:49:15;;;;;;;30.27;6.80;;;;;;;-143.84;88.50;45212.84;4992343;28;20514;-72
2022/11/06 20:51:42;;;;;;;31.73;6.90;;;;;;;-143.84;88.04;45201.41;4990593;28;20455;-72
2022/11/06 20:54:10;;;;;;;20.67;7.50;;;;;;;-143.84;87.56;45180.47;4990812;28;20458;-72
2022/11/06 20:56:37;;;;;;;17.13;6.63;;;;;;;-143.84;87.30;45165.22;4990358;28;20451;-72
2022/11/06 20:59:04;;;;;;;21.57;7.10;;;;;;;-143.84;86.68;45169.03;4992750;28;20461;-72
2022/11/06 21:01:31;;;;;;;19.30;8.10;;;;;;;-143.84;86.25;45176.66;4989180;28;20446;-72
2022/11/06 21:03:58;;;;;;;19.47;6.37;;;;;;;-143.84;86.01;45188.06;4989696;28;20577;-72
2022/11/06 21:06:29;;;;;;;20.27;7.40;;;;;;;-143.84;86.01;45201.41;4990262;28;20524;-72
2022/11/06 21:08:57;;;;;;;13.63;6.27;;;;;;;-143.84;86.05;45201.41;4990133;28;20472;-72
2022/11/06 21:11:26;;;;;;;18.60;7.20;;;;;;;-143.84;86.31;45188.06;4990402;28;20482;-72
2022/11/06 21:13:55;;;;;;;17.63;6.67;;;;;;;-143.84;85.88;45193.78;4990136;28;20542;-72